Time;durP1;ratioP1;P1;durP2;ratioP2;P2;SDS_P1;SDS_P2;PMS_P1;PMS_P2;Temp;Humidity;BMP_temperature;BMP_pressure;BME280_temperature;BME280_humidity;BME280_pressure;Samples;Min_cycle;Max_cycle;Signal;HPM_P1;HPM_P2
2023/08/27 00:00:13;;;;;;;3.15;1.98;;;22.10;99.90;;;;;;10103326;28;20017;-71
2023/08/27 00:05:07;;;;;;;3.97;2.75;;;22.10;99.90;;;;;;10102922;28;20045;-71
2023/08/27 00:09:58;;;;;;;4.95;2.25;;;21.90;99.90;;;;;;10087527;28;20017;-73
2023/08/27 00:14:49;;;;;;;5.93;2.35;;;22.00;99.90;;;;;;10102397;28;20049;-71
2023/08/27 00:19:40;;;;;;;3.25;2.22;;;22.00;99.90;;;;;;10083945;28;20059;-71
2023/08/27 00:24:32;;;;;;;2.58;2.17;;;22.00;99.90;;;;;;10102245;28;20638;-69
2023/08/27 00:29:22;;;;;;;4.30;2.05;;;22.00;99.90;;;;;;10083417;28;20027;-69
2023/08/27 00:34:13;;;;;;;4.50;2.03;;;21.90;99.90;;;;;;10099433;28;20039;-69
2023/08/27 00:39:05;;;;;;;8.73;2.13;;;21.90;99.90;;;;;;10101780;28;20028;-69
2023/08/27 00:43:55;;;;;;;5.20;2.28;;;22.00;99.90;;;;;;10101101;28;20491;-69
2023/08/27 00:48:46;;;;;;;4.38;2.30;;;21.90;99.90;;;;;;10100880;28;20037;-70
2023/08/27 00:53:46;;;;;;;4.32;2.50;;;22.00;99.90;;;;;;10107355;28;20040;-69
2023/08/27 00:58:37;;;;;;;3.60;2.08;;;21.90;99.90;;;;;;10100365;28;20036;-71
2023/08/27 01:03:28;;;;;;;4.75;2.17;;;21.80;99.90;;;;;;10099929;28;20040;-70
2023/08/27 01:08:30;;;;;;;4.43;2.05;;;21.80;99.90;;;;;;10100231;28;20398;-71
2023/08/27 01:13:34;;;;;;;3.38;1.98;;;21.70;99.90;;;;;;10099856;28;20041;-70
2023/08/27 01:18:26;;;;;;;3.03;1.83;;;21.80;99.90;;;;;;10091457;28;20033;-70
2023/08/27 01:23:17;;;;;;;2.70;1.92;;;21.90;99.90;;;;;;10081552;28;20071;-70
2023/08/27 01:28:30;;;;;;;3.35;2.70;;;21.70;99.90;;;;;;10067679;28;20030;-70
2023/08/27 01:33:24;;;;;;;5.43;2.50;;;21.80;99.90;;;;;;10078906;28;20025;-70
2023/08/27 01:38:19;;;;;;;2.95;1.83;;;21.70;99.90;;;;;;10092157;28;20033;-70
2023/08/27 01:43:10;;;;;;;3.72;1.67;;;21.70;99.90;;;;;;10080881;28;20053;-70
2023/08/27 01:48:01;;;;;;;4.43;2.67;;;21.70;99.90;;;;;;10098028;28;20055;-70
2023/08/27 01:52:52;;;;;;;3.30;2.40;;;21.60;99.90;;;;;;10081209;28;20039;-69
2023/08/27 01:57:44;;;;;;;3.20;2.13;;;21.70;99.90;;;;;;10098076;28;20013;-69
2023/08/27 02:02:38;;;;;;;3.47;1.98;;;21.80;99.90;;;;;;10074143;28;20408;-70
2023/08/27 02:07:29;;;;;;;3.65;2.35;;;21.80;99.90;;;;;;10079885;28;20557;-70
2023/08/27 02:12:19;;;;;;;4.95;2.20;;;21.60;99.90;;;;;;10097779;28;20053;-70
2023/08/27 02:17:10;;;;;;;3.72;2.22;;;21.60;99.90;;;;;;10091520;28;20029;-70
2023/08/27 02:22:04;;;;;;;4.90;2.20;;;21.60;99.90;;;;;;10080138;28;20272;-70
2023/08/27 02:26:54;;;;;;;3.83;2.40;;;21.70;99.90;;;;;;10097972;28;20042;-69
2023/08/27 02:31:46;;;;;;;2.80;1.90;;;21.80;99.90;;;;;;10095628;28;20128;-69
2023/08/27 02:36:36;;;;;;;4.13;2.05;;;21.60;99.90;;;;;;10079082;28;20454;-70
2023/08/27 02:41:27;;;;;;;3.65;2.72;;;21.50;99.90;;;;;;10097151;28;20025;-69
2023/08/27 02:46:18;;;;;;;2.90;1.92;;;21.50;99.90;;;;;;10096776;28;20033;-69
2023/08/27 02:51:08;;;;;;;2.03;1.58;;;21.50;99.90;;;;;;10083710;28;20845;-69
2023/08/27 02:55:59;;;;;;;5.82;2.05;;;21.50;99.90;;;;;;10082659;28;20140;-70
2023/08/27 03:00:50;;;;;;;2.90;2.17;;;21.50;99.90;;;;;;10095779;28;20043;-70
2023/08/27 03:05:41;;;;;;;3.40;1.85;;;21.40;99.90;;;;;;10088952;28;20060;-70
2023/08/27 03:10:31;;;;;;;7.07;2.13;;;21.30;99.90;;;;;;10093837;28;20032;-69
2023/08/27 03:15:23;;;;;;;1.88;1.60;;;21.40;99.90;;;;;;10096009;28;20141;-70
2023/08/27 03:20:14;;;;;;;5.32;2.15;;;21.20;99.90;;;;;;10078390;28;20017;-70
2023/08/27 03:25:05;;;;;;;3.67;2.00;;;21.20;99.90;;;;;;10096210;28;20424;-70
2023/08/27 03:29:56;;;;;;;3.38;2.33;;;21.20;99.90;;;;;;10082726;28;20032;-70
2023/08/27 03:34:46;;;;;;;3.60;2.20;;;21.20;99.90;;;;;;10102964;28;20033;-69
2023/08/27 03:39:37;;;;;;;3.28;1.90;;;21.30;99.90;;;;;;10103987;28;20071;-70
2023/08/27 03:44:28;;;;;;;3.50;1.95;;;21.10;99.90;;;;;;10102779;28;20033;-70
2023/08/27 03:49:23;;;;;;;3.83;2.90;;;21.10;99.90;;;;;;10103175;28;20475;-70
2023/08/27 03:54:14;;;;;;;4.35;2.40;;;21.10;99.90;;;;;;10085147;28;20032;-72
2023/08/27 03:59:09;;;;;;;6.30;2.25;;;21.20;99.90;;;;;;10102005;28;20041;-70
2023/08/27 04:03:59;;;;;;;3.00;2.03;;;21.20;99.90;;;;;;10084143;28;20360;-71
2023/08/27 04:08:50;;;;;;;4.60;2.28;;;21.20;99.90;;;;;;10103202;28;20135;-68
2023/08/27 04:13:40;;;;;;;2.75;2.42;;;21.00;99.90;;;;;;10103070;28;20046;-69
2023/08/27 04:18:32;;;;;;;2.85;2.22;;;21.10;99.90;;;;;;10102312;28;20025;-69
2023/08/27 04:23:23;;;;;;;4.97;2.47;;;21.10;99.90;;;;;;10077578;28;20053;-70
2023/08/27 04:28:15;;;;;;;5.28;2.33;;;21.20;99.90;;;;;;10102756;28;20024;-70
2023/08/27 04:33:09;;;;;;;3.83;2.05;;;21.20;99.90;;;;;;10099361;28;20032;-71
2023/08/27 04:38:00;;;;;;;2.78;1.88;;;21.10;99.90;;;;;;10100317;28;20231;-70
2023/08/27 04:42:51;;;;;;;4.95;2.65;;;21.10;99.90;;;;;;10101385;28;20041;-70
2023/08/27 04:47:41;;;;;;;4.30;2.22;;;21.00;99.90;;;;;;10100965;28;20025;-69
2023/08/27 04:52:32;;;;;;;6.10;2.58;;;21.00;99.90;;;;;;10101498;28;20203;-69
2023/08/27 04:57:23;;;;;;;4.00;2.65;;;21.10;99.90;;;;;;10082109;28;20028;-69
2023/08/27 05:02:17;;;;;;;2.97;2.05;;;21.00;99.90;;;;;;10095074;28;20041;-69
2023/08/27 05:07:07;;;;;;;5.43;2.70;;;21.10;99.90;;;;;;10069224;28;20032;-69
2023/08/27 05:11:59;;;;;;;6.07;2.75;;;21.00;99.90;;;;;;10093856;28;20047;-71
2023/08/27 05:16:49;;;;;;;4.78;2.47;;;20.90;99.90;;;;;;10097561;28;20108;-71
2023/08/27 05:21:40;;;;;;;4.53;2.30;;;20.90;99.90;;;;;;10099616;28;20521;-70
2023/08/27 05:26:31;;;;;;;4.70;2.40;;;21.00;99.90;;;;;;10099554;28;20029;-70
2023/08/27 05:31:22;;;;;;;5.05;2.40;;;21.00;99.90;;;;;;10097150;28;20384;-70
2023/08/27 05:36:12;;;;;;;5.75;2.58;;;21.10;99.90;;;;;;10099728;28;20104;-70
2023/08/27 05:41:03;;;;;;;4.35;2.72;;;21.00;99.90;;;;;;10099484;28;20068;-70
2023/08/27 05:45:57;;;;;;;4.25;3.00;;;20.90;99.90;;;;;;10098166;28;20044;-70
2023/08/27 05:50:47;;;;;;;3.35;2.33;;;20.90;99.90;;;;;;10070682;28;20036;-70
2023/08/27 05:55:38;;;;;;;4.35;2.25;;;20.80;99.90;;;;;;10098434;28;20033;-71
2023/08/27 06:00:29;;;;;;;2.92;2.15;;;20.90;99.90;;;;;;10097946;28;20386;-71
2023/08/27 06:05:20;;;;;;;4.25;2.50;;;21.00;99.90;;;;;;10097649;28;20105;-71
2023/08/27 06:10:11;;;;;;;6.03;2.33;;;21.00;99.90;;;;;;10098073;28;20062;-70
2023/08/27 06:15:04;;;;;;;4.07;2.38;;;21.00;99.90;;;;;;10079146;28;20045;-70
2023/08/27 06:19:57;;;;;;;3.78;2.67;;;21.00;99.90;;;;;;10080961;28;20550;-70
2023/08/27 06:24:49;;;;;;;5.03;2.60;;;21.00;99.90;;;;;;10096923;28;20124;-71
2023/08/27 06:29:39;;;;;;;5.38;2.40;;;20.90;99.90;;;;;;10091711;28;20641;-72
2023/08/27 06:34:30;;;;;;;4.22;2.83;;;21.00;99.90;;;;;;10045885;28;20365;-69
2023/08/27 06:39:23;;;;;;;5.45;2.65;;;20.90;99.90;;;;;;10078155;28;20025;-70
2023/08/27 06:44:14;;;;;;;3.30;2.80;;;21.00;99.90;;;;;;10097653;28;20486;-71
2023/08/27 06:49:05;;;;;;;3.40;2.60;;;21.00;99.90;;;;;;10097206;28;20112;-70
2023/08/27 06:53:56;;;;;;;6.00;3.53;;;21.00;99.90;;;;;;10085445;28;20120;-69
2023/08/27 06:58:48;;;;;;;3.70;2.63;;;21.00;99.90;;;;;;10095520;28;20111;-68
2023/08/27 07:03:38;;;;;;;6.25;2.97;;;21.10;99.90;;;;;;10096179;28;20041;-67
2023/08/27 07:08:29;;;;;;;4.63;3.28;;;21.10;99.90;;;;;;10097070;28;20411;-68
2023/08/27 07:13:20;;;;;;;7.65;2.97;;;21.20;99.90;;;;;;10079799;28;20419;-70
2023/08/27 07:18:11;;;;;;;3.80;2.40;;;21.20;99.90;;;;;;10096713;28;20498;-70
2023/08/27 07:23:02;;;;;;;3.65;3.00;;;21.10;99.90;;;;;;10096410;28;20179;-68
2023/08/27 07:28:17;;;;;;;3.85;2.63;;;21.10;99.90;;;;;;10064993;28;20056;-67
2023/08/27 07:33:10;;;;;;;5.53;2.78;;;21.10;99.90;;;;;;10073394;28;20502;-68
2023/08/27 07:38:01;;;;;;;4.32;2.72;;;21.20;99.90;;;;;;10094297;28;20534;-68
2023/08/27 07:42:52;;;;;;;5.82;3.40;;;21.20;99.90;;;;;;10094687;28;20182;-69
2023/08/27 07:47:43;;;;;;;4.80;2.92;;;21.20;99.90;;;;;;10094358;28;20395;-69
2023/08/27 07:52:33;;;;;;;4.28;3.40;;;21.00;99.90;;;;;;10094374;28;20044;-68
2023/08/27 07:57:25;;;;;;;5.68;2.78;;;21.00;99.90;;;;;;10094163;28;20063;-68
2023/08/27 08:02:15;;;;;;;4.63;2.50;;;21.10;99.90;;;;;;10094885;28;20525;-71
2023/08/27 08:07:06;;;;;;;5.85;2.90;;;21.20;99.90;;;;;;10076943;28;20028;-72
2023/08/27 08:11:57;;;;;;;6.93;3.45;;;21.20;99.90;;;;;;10077116;28;20102;-70
2023/08/27 08:16:52;;;;;;;4.68;2.67;;;21.10;99.90;;;;;;10100568;28;20033;-71
2023/08/27 08:21:42;;;;;;;7.70;3.08;;;21.20;99.90;;;;;;10102034;28;20098;-71
2023/08/27 08:26:34;;;;;;;4.43;3.28;;;21.40;99.90;;;;;;10083828;28;20118;-71
2023/08/27 08:31:25;;;;;;;6.90;3.15;;;21.50;99.90;;;;;;10099719;28;20079;-71
2023/08/27 08:36:16;;;;;;;4.07;2.80;;;21.50;99.90;;;;;;10081775;28;20430;-73
2023/08/27 08:41:09;;;;;;;3.97;2.47;;;21.40;99.90;;;;;;10101431;28;20033;-71
2023/08/27 08:46:06;;;;;;;4.45;3.42;;;21.60;99.90;;;;;;10082398;28;20099;-72
2023/08/27 08:50:58;;;;;;;3.20;2.17;;;21.60;99.90;;;;;;10094228;28;20025;-74
2023/08/27 08:55:57;;;;;;;3.13;2.17;;;21.60;99.90;;;;;;10100522;28;20024;-71
2023/08/27 09:00:48;;;;;;;2.78;2.13;;;21.70;99.90;;;;;;10100294;28;20025;-69
2023/08/27 09:05:39;;;;;;;3.85;2.58;;;21.70;99.90;;;;;;10100020;28;20083;-69
2023/08/27 09:10:31;;;;;;;5.50;2.38;;;21.70;99.90;;;;;;10100631;28;20025;-70
2023/08/27 09:15:25;;;;;;;2.97;1.80;;;21.70;99.90;;;;;;10099745;28;20402;-71
2023/08/27 09:20:16;;;;;;;3.50;2.07;;;21.70;99.90;;;;;;10099244;28;20049;-69
2023/08/27 09:25:07;;;;;;;3.92;2.08;;;21.70;99.90;;;;;;10099444;28;20299;-69
2023/08/27 09:30:00;;;;;;;3.03;2.00;;;21.60;99.90;;;;;;10097780;28;20029;-71
2023/08/27 09:35:04;;;;;;;2.20;1.85;;;21.70;99.90;;;;;;10099180;28;20056;-71
2023/08/27 09:39:55;;;;;;;8.13;2.17;;;21.80;99.90;;;;;;10081956;28;20048;-70
2023/08/27 09:44:53;;;;;;;2.20;1.67;;;21.90;99.90;;;;;;10098642;28;20204;-70
2023/08/27 09:49:44;;;;;;;3.17;1.52;;;22.00;99.90;;;;;;10099343;28;20540;-70
2023/08/27 09:54:35;;;;;;;2.75;2.10;;;22.10;99.90;;;;;;10098985;28;20037;-69
2023/08/27 09:59:27;;;;;;;3.45;2.13;;;22.10;99.90;;;;;;10098633;28;20055;-68
2023/08/27 10:04:19;;;;;;;4.43;2.33;;;22.10;99.90;;;;;;10093283;28;20091;-69
2023/08/27 10:09:10;;;;;;;3.53;2.13;;;22.20;99.90;;;;;;10098886;28;20400;-69
2023/08/27 10:14:03;;;;;;;3.42;2.45;;;22.20;99.90;;;;;;10097320;28;20075;-69
2023/08/27 10:18:54;;;;;;;2.40;1.92;;;22.30;99.90;;;;;;10087459;28;20103;-68
2023/08/27 10:23:45;;;;;;;2.88;2.05;;;22.30;99.90;;;;;;10086959;28;20072;-68
2023/08/27 10:28:40;;;;;;;6.47;2.13;;;22.30;99.90;;;;;;10070211;28;20046;-70
2023/08/27 10:33:31;;;;;;;;;;;22.40;99.90;;;;;;10074434;28;20037;-70
2023/08/27 10:38:28;;;;;;;3.67;1.80;;;22.40;99.90;;;;;;10077226;28;19913;-70
2023/08/27 10:43:20;;;;;;;6.15;1.83;;;22.40;99.90;;;;;;10072551;28;20395;-71
2023/08/27 10:48:26;;;;;;;2.58;1.70;;;22.30;99.90;;;;;;10079283;28;20060;-73
2023/08/27 10:53:19;;;;;;;3.35;1.92;;;22.20;99.90;;;;;;10085138;28;20109;-72
2023/08/27 10:58:16;;;;;;;3.45;1.80;;;22.20;99.90;;;;;;10088204;28;21373;-72
2023/08/27 11:03:16;;;;;;;3.25;1.75;;;22.20;99.90;;;;;;10057317;22;20053;-71
2023/08/27 11:08:15;;;;;;;3.35;2.25;;;22.20;99.90;;;;;;10012859;28;20036;-71
2023/08/27 11:13:26;;;;;;;2.63;2.10;;;22.10;99.90;;;;;;10041439;28;20042;-71
2023/08/27 11:18:23;;;;;;;1.60;1.35;;;22.10;99.90;;;;;;10009698;28;20029;-71
2023/08/27 11:23:14;;;;;;;2.10;1.02;;;21.90;99.90;;;;;;10052409;28;20049;-71
2023/08/27 11:28:12;;;;;;;1.15;0.90;;;21.40;99.90;;;;;;10049291;28;20060;-70
2023/08/27 11:33:03;;;;;;;2.03;1.17;;;21.20;99.90;;;;;;10049022;28;20569;-72
2023/08/27 11:37:54;;;;;;;8.65;1.85;;;21.10;99.90;;;;;;10054655;28;20037;-70
2023/08/27 11:42:50;;;;;;;1.60;1.40;;;21.10;99.90;;;;;;10043621;28;20037;-69
2023/08/27 11:47:42;;;;;;;2.97;1.50;;;21.20;99.90;;;;;;10051683;28;20066;-71
2023/08/27 11:52:36;;;;;;;2.60;1.48;;;21.20;99.90;;;;;;10069990;28;20033;-70
2023/08/27 11:57:27;;;;;;;1.30;0.85;;;21.30;99.90;;;;;;10054591;28;20442;-70
2023/08/27 12:02:19;;;;;;;2.40;1.02;;;21.30;99.90;;;;;;10061881;28;20064;-72
2023/08/27 12:07:11;;;;;;;4.13;2.47;;;21.50;99.90;;;;;;10060727;28;20029;-70
2023/08/27 12:12:07;;;;;;;2.42;1.60;;;21.60;99.90;;;;;;10064150;28;20033;-72
2023/08/27 12:17:07;;;;;;;3.13;1.75;;;21.60;99.90;;;;;;10057321;28;20101;-69
2023/08/27 12:21:58;;;;;;;12.48;6.65;;;21.50;99.90;;;;;;10057272;28;20096;-71
2023/08/27 12:26:49;;;;;;;2.38;1.50;;;21.60;99.90;;;;;;10061186;28;20211;-71
2023/08/27 12:31:39;;;;;;;3.03;1.35;;;21.60;99.90;;;;;;10061096;28;20025;-71
2023/08/27 12:36:30;;;;;;;2.55;1.00;;;21.60;99.90;;;;;;10062939;28;20105;-70
2023/08/27 12:41:21;;;;;;;1.75;1.13;;;21.50;99.90;;;;;;10062449;28;20103;-71
2023/08/27 12:46:11;;;;;;;4.10;1.63;;;21.50;99.90;;;;;;10060461;28;20034;-71
2023/08/27 12:51:02;;;;;;;4.22;1.60;;;21.40;99.90;;;;;;10062590;28;20296;-71
2023/08/27 12:55:53;;;;;;;2.58;0.80;;;21.40;99.90;;;;;;10060907;28;20550;-71
2023/08/27 13:00:43;;;;;;;2.03;1.05;;;21.40;99.90;;;;;;10060138;28;20039;-70
2023/08/27 13:05:34;;;;;;;1.52;0.82;;;21.30;99.90;;;;;;10060841;28;20052;-70
2023/08/27 13:10:25;;;;;;;3.85;0.93;;;21.20;99.90;;;;;;10043002;28;20569;-70
2023/08/27 13:15:15;;;;;;;1.98;0.98;;;21.20;99.90;;;;;;10042505;28;20025;-71
2023/08/27 13:20:06;;;;;;;2.35;1.00;;;21.40;99.90;;;;;;10060674;28;20368;-71
2023/08/27 13:24:57;;;;;;;3.08;0.95;;;21.40;99.90;;;;;;10060197;28;20037;-70
2023/08/27 13:29:47;;;;;;;1.10;0.90;;;21.40;99.90;;;;;;10060321;28;20045;-70
2023/08/27 13:34:38;;;;;;;1.05;0.80;;;21.30;99.90;;;;;;10043498;28;20478;-70
2023/08/27 13:39:29;;;;;;;3.13;0.68;;;21.40;99.90;;;;;;10025795;28;20029;-69
2023/08/27 13:44:19;;;;;;;1.45;0.70;;;21.50;99.90;;;;;;10059755;28;20159;-71
2023/08/27 13:49:10;;;;;;;4.78;0.80;;;21.50;99.90;;;;;;10041805;28;20022;-71
2023/08/27 13:54:01;;;;;;;1.77;0.63;;;21.40;99.90;;;;;;10058643;28;20034;-72
2023/08/27 13:58:52;;;;;;;1.52;0.70;;;21.40;99.90;;;;;;10069869;28;20029;-71
2023/08/27 14:03:42;;;;;;;2.08;0.82;;;21.40;99.90;;;;;;10058163;28;20053;-70
2023/08/27 14:08:33;;;;;;;1.77;0.88;;;21.40;99.90;;;;;;10058512;28;20392;-70
2023/08/27 14:13:23;;;;;;;3.75;0.80;;;21.50;99.90;;;;;;10057391;28;20108;-70
2023/08/27 14:18:15;;;;;;;1.50;0.77;;;21.50;99.90;;;;;;10058688;28;20026;-71
2023/08/27 14:23:05;;;;;;;2.75;1.20;;;21.60;99.90;;;;;;10039559;28;20033;-70
2023/08/27 14:27:56;;;;;;;2.20;0.93;;;21.60;99.90;;;;;;10057665;28;20037;-71
2023/08/27 14:32:46;;;;;;;1.33;0.90;;;21.70;99.90;;;;;;10040215;28;20450;-71
2023/08/27 14:37:38;;;;;;;1.33;1.02;;;21.70;99.90;;;;;;10057339;28;20025;-71
2023/08/27 14:42:29;;;;;;;1.42;0.80;;;21.70;99.90;;;;;;10056889;28;20380;-69
2023/08/27 14:47:22;;;;;;;2.72;0.80;;;21.70;99.90;;;;;;10057281;28;20033;-69
2023/08/27 14:52:13;;;;;;;1.40;0.73;;;21.70;99.90;;;;;;10056992;28;20356;-69
2023/08/27 14:57:04;;;;;;;1.10;0.80;;;21.80;99.90;;;;;;10053393;28;20117;-68
2023/08/27 15:01:54;;;;;;;2.00;0.90;;;21.80;99.90;;;;;;10055765;28;20049;-70
2023/08/27 15:06:45;;;;;;;1.83;0.90;;;21.80;99.90;;;;;;10056447;28;20030;-70
2023/08/27 15:11:35;;;;;;;0.90;0.75;;;21.90;99.90;;;;;;10056258;28;20220;-70
2023/08/27 15:16:26;;;;;;;2.78;1.25;;;21.90;99.90;;;;;;10038451;28;20040;-70
2023/08/27 15:21:17;;;;;;;0.93;0.65;;;21.90;99.90;;;;;;10055886;28;20523;-70
2023/08/27 15:26:07;;;;;;;0.82;0.60;;;22.00;99.90;;;;;;10035943;28;20044;-71
2023/08/27 15:30:58;;;;;;;1.83;0.70;;;22.20;99.90;;;;;;10055880;28;20021;-71
2023/08/27 15:35:50;;;;;;;1.52;0.95;;;22.20;99.90;;;;;;10060181;28;20402;-71
2023/08/27 15:40:51;;;;;;;0.80;0.57;;;22.10;99.90;;;;;;10056874;28;20034;-70
2023/08/27 15:45:41;;;;;;;1.42;0.88;;;22.10;99.90;;;;;;10054908;28;20060;-70
2023/08/27 15:50:32;;;;;;;3.42;1.55;;;22.00;99.90;;;;;;10056248;28;20048;-71
2023/08/27 15:55:23;;;;;;;1.58;0.90;;;22.00;99.90;;;;;;10054908;28;20029;-71
2023/08/27 16:00:17;;;;;;;3.00;1.13;;;22.00;99.90;;;;;;10055349;28;20036;-70
2023/08/27 16:05:08;;;;;;;1.15;0.85;;;22.00;99.90;;;;;;10037245;28;20050;-70
2023/08/27 16:09:58;;;;;;;1.55;1.05;;;22.10;99.90;;;;;;10054944;28;20479;-71
2023/08/27 16:14:49;;;;;;;4.22;1.02;;;22.10;99.90;;;;;;10054888;28;20503;-69
2023/08/27 16:19:40;;;;;;;3.65;0.88;;;22.20;99.90;;;;;;10055835;28;20573;-72
2023/08/27 16:24:31;;;;;;;2.35;1.08;;;22.10;99.90;;;;;;10055739;28;20385;-71
2023/08/27 16:29:21;;;;;;;2.42;1.00;;;22.30;99.90;;;;;;10037341;28;20030;-71
2023/08/27 16:34:12;;;;;;;1.88;1.13;;;22.20;99.90;;;;;;10054869;28;20029;-71
2023/08/27 16:39:03;;;;;;;1.88;0.90;;;22.10;99.90;;;;;;10043995;28;20017;-70
2023/08/27 16:43:53;;;;;;;3.08;1.27;;;22.10;99.90;;;;;;10061275;28;20049;-70
2023/08/27 16:48:44;;;;;;;2.92;1.05;;;22.00;99.90;;;;;;10061606;28;20377;-71
2023/08/27 16:53:35;;;;;;;2.00;1.20;;;22.00;99.90;;;;;;10060927;28;20029;-73
2023/08/27 16:58:25;;;;;;;2.30;1.60;;;22.00;99.90;;;;;;10055665;28;20569;-72
2023/08/27 17:03:18;;;;;;;1.98;0.95;;;22.00;99.90;;;;;;10046555;28;20042;-68
2023/08/27 17:08:16;;;;;;;2.17;0.98;;;21.90;99.90;;;;;;10041929;28;20515;-71
2023/08/27 17:13:06;;;;;;;2.13;1.23;;;21.90;99.90;;;;;;10058666;28;20474;-70
2023/08/27 17:17:57;;;;;;;2.05;1.30;;;21.80;99.90;;;;;;10060002;28;20108;-70
2023/08/27 17:22:48;;;;;;;1.52;1.15;;;21.70;99.90;;;;;;10060560;28;20033;-71
2023/08/27 17:27:45;;;;;;;3.63;1.10;;;21.70;99.90;;;;;;10057289;28;20057;-69
2023/08/27 17:32:35;;;;;;;2.78;1.60;;;21.70;99.90;;;;;;10055324;28;20652;-71
2023/08/27 17:37:26;;;;;;;3.20;1.60;;;21.70;99.90;;;;;;10043629;28;20064;-70
2023/08/27 17:42:17;;;;;;;3.30;1.60;;;21.80;99.90;;;;;;10042743;28;20099;-72
2023/08/27 17:47:08;;;;;;;1.65;1.55;;;21.70;99.90;;;;;;10054628;28;20025;-70
2023/08/27 17:51:58;;;;;;;2.78;1.48;;;21.70;99.90;;;;;;10053512;28;20031;-70
2023/08/27 17:56:49;;;;;;;2.22;1.50;;;21.60;99.90;;;;;;10053023;28;20112;-72
2023/08/27 18:01:40;;;;;;;1.98;1.35;;;21.60;99.90;;;;;;10040368;28;20046;-70
2023/08/27 18:06:30;;;;;;;2.42;1.50;;;21.60;99.90;;;;;;10047421;28;20152;-70
2023/08/27 18:11:21;;;;;;;2.17;1.33;;;21.60;99.90;;;;;;10048776;28;20018;-72
2023/08/27 18:16:13;;;;;;;2.95;1.58;;;21.60;99.90;;;;;;10047878;28;20377;-71
2023/08/27 18:21:04;;;;;;;3.70;1.33;;;21.60;99.90;;;;;;10051651;28;20609;-69
2023/08/27 18:25:54;;;;;;;2.88;1.40;;;21.50;99.90;;;;;;10020908;28;20077;-69
2023/08/27 18:30:54;;;;;;;4.05;1.45;;;21.40;99.90;;;;;;10047032;28;20415;-69
2023/08/27 18:35:45;;;;;;;1.70;1.20;;;21.40;99.90;;;;;;10033141;28;20033;-70
2023/08/27 18:40:36;;;;;;;1.85;1.20;;;21.40;99.90;;;;;;10053202;28;20026;-70
2023/08/27 18:45:30;;;;;;;2.00;1.30;;;21.40;99.90;;;;;;10034805;28;20126;-71
2023/08/27 18:50:20;;;;;;;2.55;1.38;;;21.30;99.90;;;;;;10056616;28;20142;-71
2023/08/27 18:55:11;;;;;;;2.90;1.95;;;21.30;99.90;;;;;;10018986;28;20268;-71
2023/08/27 19:00:05;;;;;;;1.58;1.27;;;21.20;99.90;;;;;;10053697;28;20451;-70
2023/08/27 19:04:55;;;;;;;3.97;1.30;;;21.20;99.90;;;;;;10050154;28;20590;-70
2023/08/27 19:09:48;;;;;;;4.00;1.75;;;21.10;99.90;;;;;;10055517;28;20033;-71
2023/08/27 19:14:39;;;;;;;4.13;1.33;;;21.20;99.90;;;;;;10036946;28;20407;-72
2023/08/27 19:19:30;;;;;;;5.68;1.83;;;21.10;99.90;;;;;;10049368;28;20035;-71
2023/08/27 19:24:21;;;;;;;2.85;1.60;;;21.10;99.90;;;;;;10035253;28;20531;-72
2023/08/27 19:29:12;;;;;;;3.10;1.73;;;21.10;99.90;;;;;;10046130;28;20247;-73
2023/08/27 19:34:02;;;;;;;2.65;1.25;;;21.10;99.90;;;;;;10052251;28;20104;-73
2023/08/27 19:38:53;;;;;;;1.95;1.45;;;21.00;99.90;;;;;;10051098;28;20026;-73
2023/08/27 19:43:44;;;;;;;1.90;1.35;;;21.10;99.90;;;;;;10050889;28;20426;-72
2023/08/27 19:48:37;;;;;;;1.80;1.50;;;21.00;99.90;;;;;;10053280;28;20067;-72
2023/08/27 19:53:31;;;;;;;4.15;1.83;;;20.90;99.90;;;;;;10051680;28;20030;-73
2023/08/27 19:58:22;;;;;;;2.42;2.05;;;21.00;99.90;;;;;;10054806;28;20499;-73
2023/08/27 20:03:13;;;;;;;2.08;1.48;;;21.00;99.90;;;;;;10043088;28;20042;-71
2023/08/27 20:08:04;;;;;;;2.33;1.83;;;21.00;99.90;;;;;;10036215;28;20033;-72
2023/08/27 20:12:55;;;;;;;3.45;1.48;;;20.90;99.90;;;;;;10062061;28;20034;-70
2023/08/27 20:17:46;;;;;;;2.90;1.35;;;20.90;99.90;;;;;;10062911;28;20036;-71
2023/08/27 20:22:42;;;;;;;2.75;1.40;;;20.80;99.90;;;;;;10046437;28;20102;-73
2023/08/27 20:27:32;;;;;;;3.05;1.20;;;20.80;99.90;;;;;;10054159;28;20033;-71
2023/08/27 20:32:23;;;;;;;2.38;1.58;;;20.80;99.90;;;;;;10058600;28;20037;-71
2023/08/27 20:37:14;;;;;;;2.83;1.70;;;20.70;99.90;;;;;;10058834;28;20062;-71
2023/08/27 20:42:04;;;;;;;2.10;1.25;;;20.70;99.90;;;;;;10060147;28;20029;-71
2023/08/27 20:46:55;;;;;;;3.00;1.42;;;20.60;99.90;;;;;;10043313;28;20033;-72
2023/08/27 20:51:46;;;;;;;1.77;1.17;;;20.60;99.90;;;;;;10058367;28;20151;-71
2023/08/27 20:56:38;;;;;;;1.40;1.10;;;20.60;99.90;;;;;;10056158;28;20037;-72
2023/08/27 21:01:31;;;;;;;1.83;1.10;;;20.60;99.90;;;;;;10065467;28;20077;-70
2023/08/27 21:06:23;;;;;;;2.88;1.13;;;20.50;99.90;;;;;;10060036;28;20072;-70
2023/08/27 21:11:13;;;;;;;2.70;1.05;;;20.40;99.90;;;;;;10042089;28;20033;-70
2023/08/27 21:16:04;;;;;;;1.70;1.20;;;20.50;99.90;;;;;;10058429;28;20515;-70
2023/08/27 21:20:55;;;;;;;2.60;1.38;;;20.40;99.90;;;;;;10057744;28;20389;-70
2023/08/27 21:25:46;;;;;;;2.60;1.40;;;20.40;99.90;;;;;;10060297;28;20041;-69
2023/08/27 21:30:36;;;;;;;2.25;1.40;;;20.40;99.90;;;;;;10059266;28;20497;-69
2023/08/27 21:35:27;;;;;;;1.92;1.35;;;20.40;99.90;;;;;;10056099;28;20038;-72
2023/08/27 21:40:17;;;;;;;2.58;1.30;;;20.40;99.90;;;;;;10039517;28;20046;-69
2023/08/27 21:45:08;;;;;;;2.45;1.45;;;20.40;99.90;;;;;;10058526;28;20033;-75
2023/08/27 21:49:59;;;;;;;2.83;1.50;;;20.30;99.90;;;;;;10057134;28;20125;-73
2023/08/27 21:54:50;;;;;;;3.47;1.50;;;20.40;99.90;;;;;;10036386;28;20033;-71
2023/08/27 21:59:40;;;;;;;2.30;1.63;;;20.30;99.90;;;;;;10053286;28;20058;-72
2023/08/27 22:04:31;;;;;;;1.92;1.83;;;20.30;99.90;;;;;;10052800;28;20537;-71
2023/08/27 22:09:22;;;;;;;3.47;1.65;;;20.30;99.90;;;;;;10037215;28;20570;-72
2023/08/27 22:14:14;;;;;;;1.38;1.20;;;20.30;99.90;;;;;;10055239;28;20285;-73
2023/08/27 22:19:05;;;;;;;2.75;1.50;;;20.30;99.90;;;;;;10057071;28;20048;-71
2023/08/27 22:23:57;;;;;;;2.42;1.50;;;20.20;99.90;;;;;;10057541;28;20290;-71
2023/08/27 22:28:47;;;;;;;2.53;1.38;;;20.10;99.90;;;;;;10029943;28;20040;-73
2023/08/27 22:33:38;;;;;;;1.48;1.15;;;20.20;99.90;;;;;;10022810;28;20029;-73
2023/08/27 22:38:29;;;;;;;1.70;1.20;;;20.20;99.90;;;;;;10039075;28;20029;-72
2023/08/27 22:43:19;;;;;;;2.38;1.75;;;20.20;99.90;;;;;;10056079;28;20037;-73
2023/08/27 22:48:10;;;;;;;3.05;1.25;;;20.10;99.90;;;;;;10037663;28;20025;-73
2023/08/27 22:53:01;;;;;;;2.00;1.10;;;20.20;99.90;;;;;;10056353;28;20021;-73
2023/08/27 22:57:51;;;;;;;2.05;1.20;;;20.10;99.90;;;;;;10056728;28;20045;-73
2023/08/27 23:02:42;;;;;;;2.13;1.30;;;20.00;99.90;;;;;;10033937;28;20470;-73
2023/08/27 23:07:33;;;;;;;2.92;1.50;;;20.00;99.90;;;;;;10055212;28;20033;-72
2023/08/27 23:12:23;;;;;;;2.22;1.50;;;20.00;99.90;;;;;;10056857;28;20472;-72
2023/08/27 23:17:14;;;;;;;3.90;1.70;;;20.00;99.90;;;;;;10054598;28;20033;-71
2023/08/27 23:22:05;;;;;;;2.10;1.23;;;20.00;99.90;;;;;;10037442;28;20033;-72
2023/08/27 23:26:55;;;;;;;4.32;1.65;;;20.00;99.90;;;;;;10028126;28;20248;-73
2023/08/27 23:31:46;;;;;;;2.40;1.52;;;19.90;99.90;;;;;;10047992;28;20241;-74
2023/08/27 23:36:38;;;;;;;2.40;1.50;;;20.00;99.90;;;;;;10059842;28;20026;-74
2023/08/27 23:41:28;;;;;;;3.03;1.63;;;19.90;99.90;;;;;;10058432;23;20048;-69
2023/08/27 23:46:19;;;;;;;2.47;1.67;;;19.90;99.90;;;;;;10137065;28;20036;-69
2023/08/27 23:51:09;;;;;;;3.42;1.52;;;19.80;99.90;;;;;;10132662;28;20031;-69
2023/08/27 23:56:00;;;;;;;2.08;1.40;;;19.70;99.90;;;;;;10123629;28;20270;-68
